sensor_id;sensor_type;location;lat;lon;timestamp;P1;durP1;ratioP1;P2;durP2;ratioP2
42420;SDS011;28063;48.140;11.588;2023-06-24T00:00:57;1.27;;;1.17;;
42420;SDS011;28063;48.140;11.588;2023-06-24T00:03:23;1.95;;;1.45;;
42420;SDS011;28063;48.140;11.588;2023-06-24T00:05:49;1.63;;;1.52;;
42420;SDS011;28063;48.140;11.588;2023-06-24T00:08:18;1.90;;;1.70;;
42420;SDS011;28063;48.140;11.588;2023-06-24T00:10:46;1.50;;;1.40;;
42420;SDS011;28063;48.140;11.588;2023-06-24T00:13:12;1.80;;;1.70;;
42420;SDS011;28063;48.140;11.588;2023-06-24T00:15:39;1.88;;;1.77;;
42420;SDS011;28063;48.140;11.588;2023-06-24T00:18:08;2.25;;;1.70;;
42420;SDS011;28063;48.140;11.588;2023-06-24T00:20:34;1.80;;;1.70;;
42420;SDS011;28063;48.140;11.588;2023-06-24T00:23:00;1.90;;;1.80;;
42420;SDS011;28063;48.140;11.588;2023-06-24T00:25:26;2.17;;;1.98;;
42420;SDS011;28063;48.140;11.588;2023-06-24T00:27:52;1.70;;;1.60;;
42420;SDS011;28063;48.140;11.588;2023-06-24T00:30:17;1.88;;;1.67;;
42420;SDS011;28063;48.140;11.588;2023-06-24T00:32:43;1.70;;;1.60;;
42420;SDS011;28063;48.140;11.588;2023-06-24T00:35:09;1.73;;;1.60;;
42420;SDS011;28063;48.140;11.588;2023-06-24T00:37:37;1.42;;;1.35;;
42420;SDS011;28063;48.140;11.588;2023-06-24T00:40:03;2.22;;;1.95;;
42420;SDS011;28063;48.140;11.588;2023-06-24T00:42:30;1.60;;;1.50;;
42420;SDS011;28063;48.140;11.588;2023-06-24T00:44:56;1.80;;;1.70;;
42420;SDS011;28063;48.140;11.588;2023-06-24T00:47:22;1.77;;;1.67;;
42420;SDS011;28063;48.140;11.588;2023-06-24T00:49:48;1.77;;;1.67;;
42420;SDS011;28063;48.140;11.588;2023-06-24T00:52:14;2.28;;;2.00;;
42420;SDS011;28063;48.140;11.588;2023-06-24T00:54:41;2.40;;;2.20;;
42420;SDS011;28063;48.140;11.588;2023-06-24T00:57:10;2.22;;;2.03;;
42420;SDS011;28063;48.140;11.588;2023-06-24T00:59:37;2.10;;;2.00;;
42420;SDS011;28063;48.140;11.588;2023-06-24T01:02:03;1.95;;;1.85;;
42420;SDS011;28063;48.140;11.588;2023-06-24T01:04:30;1.95;;;1.85;;
42420;SDS011;28063;48.140;11.588;2023-06-24T01:06:58;1.80;;;1.70;;
42420;SDS011;28063;48.140;11.588;2023-06-24T01:09:24;1.98;;;1.88;;
42420;SDS011;28063;48.140;11.588;2023-06-24T01:11:51;2.30;;;2.10;;
42420;SDS011;28063;48.140;11.588;2023-06-24T01:14:16;2.30;;;2.10;;
42420;SDS011;28063;48.140;11.588;2023-06-24T01:17:04;2.53;;;2.17;;
42420;SDS011;28063;48.140;11.588;2023-06-24T01:25:43;2.97;;;2.40;;
42420;SDS011;28063;48.140;11.588;2023-06-24T01:28:36;1.73;;;1.63;;
42420;SDS011;28063;48.140;11.588;2023-06-24T01:39:49;2.70;;;2.30;;
42420;SDS011;28063;48.140;11.588;2023-06-24T01:42:21;2.13;;;1.92;;
42420;SDS011;28063;48.140;11.588;2023-06-24T01:44:48;1.98;;;1.70;;
42420;SDS011;28063;48.140;11.588;2023-06-24T01:47:21;1.70;;;1.60;;
42420;SDS011;28063;48.140;11.588;2023-06-24T01:49:52;1.88;;;1.77;;
42420;SDS011;28063;48.140;11.588;2023-06-24T01:52:20;1.90;;;1.60;;
42420;SDS011;28063;48.140;11.588;2023-06-24T01:54:48;2.22;;;1.90;;
42420;SDS011;28063;48.140;11.588;2023-06-24T01:57:17;1.88;;;1.75;;
42420;SDS011;28063;48.140;11.588;2023-06-24T01:59:45;2.17;;;1.98;;
42420;SDS011;28063;48.140;11.588;2023-06-24T02:02:12;2.00;;;1.80;;
42420;SDS011;28063;48.140;11.588;2023-06-24T02:04:39;2.10;;;1.92;;
42420;SDS011;28063;48.140;11.588;2023-06-24T02:07:05;1.85;;;1.75;;
42420;SDS011;28063;48.140;11.588;2023-06-24T02:09:33;2.70;;;1.95;;
42420;SDS011;28063;48.140;11.588;2023-06-24T02:12:00;1.80;;;1.70;;
42420;SDS011;28063;48.140;11.588;2023-06-24T02:14:28;1.35;;;1.30;;
42420;SDS011;28063;48.140;11.588;2023-06-24T02:16:55;1.98;;;1.88;;
42420;SDS011;28063;48.140;11.588;2023-06-24T02:19:24;1.88;;;1.77;;
42420;SDS011;28063;48.140;11.588;2023-06-24T02:21:53;1.77;;;1.60;;
42420;SDS011;28063;48.140;11.588;2023-06-24T02:24:21;1.90;;;1.50;;
42420;SDS011;28063;48.140;11.588;2023-06-24T02:26:47;1.30;;;1.20;;
42420;SDS011;28063;48.140;11.588;2023-06-24T02:29:14;1.80;;;1.70;;
42420;SDS011;28063;48.140;11.588;2023-06-24T02:31:41;1.50;;;1.40;;
42420;SDS011;28063;48.140;11.588;2023-06-24T02:34:07;1.55;;;1.42;;
42420;SDS011;28063;48.140;11.588;2023-06-24T02:36:33;1.58;;;1.48;;
42420;SDS011;28063;48.140;11.588;2023-06-24T02:38:58;2.22;;;2.13;;
42420;SDS011;28063;48.140;11.588;2023-06-24T02:41:24;2.10;;;1.40;;
42420;SDS011;28063;48.140;11.588;2023-06-24T02:43:50;1.85;;;1.75;;
42420;SDS011;28063;48.140;11.588;2023-06-24T02:46:16;1.65;;;1.55;;
42420;SDS011;28063;48.140;11.588;2023-06-24T02:48:42;1.58;;;1.48;;
42420;SDS011;28063;48.140;11.588;2023-06-24T02:51:10;1.65;;;1.55;;
42420;SDS011;28063;48.140;11.588;2023-06-24T02:53:37;1.30;;;1.20;;
42420;SDS011;28063;48.140;11.588;2023-06-24T02:56:04;1.67;;;1.58;;
42420;SDS011;28063;48.140;11.588;2023-06-24T02:58:32;1.27;;;1.27;;
42420;SDS011;28063;48.140;11.588;2023-06-24T03:01:01;2.08;;;1.67;;
42420;SDS011;28063;48.140;11.588;2023-06-24T03:03:32;2.15;;;1.98;;
42420;SDS011;28063;48.140;11.588;2023-06-24T03:05:57;1.92;;;1.73;;
42420;SDS011;28063;48.140;11.588;2023-06-24T03:08:24;1.60;;;1.50;;
42420;SDS011;28063;48.140;11.588;2023-06-24T03:10:55;1.60;;;1.50;;
42420;SDS011;28063;48.140;11.588;2023-06-24T03:13:21;1.50;;;1.40;;
42420;SDS011;28063;48.140;11.588;2023-06-24T03:15:48;1.60;;;1.50;;
42420;SDS011;28063;48.140;11.588;2023-06-24T03:18:13;1.80;;;1.70;;
42420;SDS011;28063;48.140;11.588;2023-06-24T03:20:40;1.90;;;1.80;;
42420;SDS011;28063;48.140;11.588;2023-06-24T03:23:06;2.00;;;1.85;;
42420;SDS011;28063;48.140;11.588;2023-06-24T03:25:32;1.70;;;1.60;;
42420;SDS011;28063;48.140;11.588;2023-06-24T03:27:58;1.92;;;1.83;;
42420;SDS011;28063;48.140;11.588;2023-06-24T03:30:26;1.67;;;1.55;;
42420;SDS011;28063;48.140;11.588;2023-06-24T03:32:52;1.60;;;1.50;;
42420;SDS011;28063;48.140;11.588;2023-06-24T03:35:17;1.60;;;1.50;;
42420;SDS011;28063;48.140;11.588;2023-06-24T03:37:43;1.48;;;1.38;;
42420;SDS011;28063;48.140;11.588;2023-06-24T03:40:09;2.30;;;2.10;;
42420;SDS011;28063;48.140;11.588;2023-06-24T03:42:35;1.88;;;1.77;;
42420;SDS011;28063;48.140;11.588;2023-06-24T03:45:01;2.17;;;1.98;;
42420;SDS011;28063;48.140;11.588;2023-06-24T03:47:28;1.60;;;1.50;;
42420;SDS011;28063;48.140;11.588;2023-06-24T03:49:54;1.85;;;1.73;;
42420;SDS011;28063;48.140;11.588;2023-06-24T03:52:20;1.60;;;1.50;;
42420;SDS011;28063;48.140;11.588;2023-06-24T03:54:45;1.95;;;1.85;;
42420;SDS011;28063;48.140;11.588;2023-06-24T03:57:11;1.83;;;1.73;;
42420;SDS011;28063;48.140;11.588;2023-06-24T03:59:37;2.75;;;2.50;;
42420;SDS011;28063;48.140;11.588;2023-06-24T04:02:04;2.10;;;1.90;;
42420;SDS011;28063;48.140;11.588;2023-06-24T04:04:33;1.65;;;1.55;;
42420;SDS011;28063;48.140;11.588;2023-06-24T04:07:02;1.65;;;1.55;;
42420;SDS011;28063;48.140;11.588;2023-06-24T04:09:33;2.30;;;2.10;;
42420;SDS011;28063;48.140;11.588;2023-06-24T04:12:00;1.80;;;1.70;;
42420;SDS011;28063;48.140;11.588;2023-06-24T04:14:26;2.63;;;1.90;;
42420;SDS011;28063;48.140;11.588;2023-06-24T04:16:51;1.50;;;1.40;;
42420;SDS011;28063;48.140;11.588;2023-06-24T04:19:17;1.40;;;1.30;;
42420;SDS011;28063;48.140;11.588;2023-06-24T04:21:43;1.30;;;1.30;;
42420;SDS011;28063;48.140;11.588;2023-06-24T04:24:08;1.50;;;1.40;;
42420;SDS011;28063;48.140;11.588;2023-06-24T04:26:34;1.50;;;1.40;;
42420;SDS011;28063;48.140;11.588;2023-06-24T04:28:59;1.70;;;1.60;;
42420;SDS011;28063;48.140;11.588;2023-06-24T04:31:25;1.27;;;1.20;;
42420;SDS011;28063;48.140;11.588;2023-06-24T04:33:54;1.58;;;1.48;;
42420;SDS011;28063;48.140;11.588;2023-06-24T04:36:19;1.40;;;1.30;;
42420;SDS011;28063;48.140;11.588;2023-06-24T04:38:45;1.35;;;1.25;;
42420;SDS011;28063;48.140;11.588;2023-06-24T04:41:11;1.10;;;1.00;;
42420;SDS011;28063;48.140;11.588;2023-06-24T04:43:36;1.42;;;1.33;;
42420;SDS011;28063;48.140;11.588;2023-06-24T04:46:02;1.63;;;1.52;;
42420;SDS011;28063;48.140;11.588;2023-06-24T04:48:28;1.75;;;1.40;;
42420;SDS011;28063;48.140;11.588;2023-06-24T04:50:53;1.52;;;1.42;;
42420;SDS011;28063;48.140;11.588;2023-06-24T04:53:20;1.50;;;1.40;;
42420;SDS011;28063;48.140;11.588;2023-06-24T04:55:46;1.90;;;1.73;;
42420;SDS011;28063;48.140;11.588;2023-06-24T04:58:12;1.50;;;1.40;;
42420;SDS011;28063;48.140;11.588;2023-06-24T05:00:38;2.55;;;2.33;;
42420;SDS011;28063;48.140;11.588;2023-06-24T05:03:03;1.88;;;1.77;;
42420;SDS011;28063;48.140;11.588;2023-06-24T05:05:29;2.33;;;2.13;;
42420;SDS011;28063;48.140;11.588;2023-06-24T05:07:55;1.85;;;1.75;;
42420;SDS011;28063;48.140;11.588;2023-06-24T05:10:21;2.35;;;1.70;;
42420;SDS011;28063;48.140;11.588;2023-06-24T05:12:46;1.98;;;1.88;;
42420;SDS011;28063;48.140;11.588;2023-06-24T05:15:12;2.20;;;2.00;;
42420;SDS011;28063;48.140;11.588;2023-06-24T05:17:38;1.85;;;1.75;;
42420;SDS011;28063;48.140;11.588;2023-06-24T05:20:04;1.90;;;1.80;;
42420;SDS011;28063;48.140;11.588;2023-06-24T05:22:31;2.53;;;2.33;;
42420;SDS011;28063;48.140;11.588;2023-06-24T05:24:56;2.47;;;2.28;;
42420;SDS011;28063;48.140;11.588;2023-06-24T05:27:22;2.50;;;2.30;;
42420;SDS011;28063;48.140;11.588;2023-06-24T05:29:48;1.85;;;1.75;;
42420;SDS011;28063;48.140;11.588;2023-06-24T05:32:13;2.30;;;2.10;;
42420;SDS011;28063;48.140;11.588;2023-06-24T05:34:39;2.33;;;2.13;;
42420;SDS011;28063;48.140;11.588;2023-06-24T05:37:05;2.20;;;2.00;;
42420;SDS011;28063;48.140;11.588;2023-06-24T05:39:31;1.92;;;1.83;;
42420;SDS011;28063;48.140;11.588;2023-06-24T05:41:56;1.98;;;1.80;;
42420;SDS011;28063;48.140;11.588;2023-06-24T05:44:22;1.58;;;1.48;;
42420;SDS011;28063;48.140;11.588;2023-06-24T05:46:48;1.67;;;1.58;;
42420;SDS011;28063;48.140;11.588;2023-06-24T05:49:14;1.70;;;1.60;;
42420;SDS011;28063;48.140;11.588;2023-06-24T05:51:40;1.83;;;1.73;;
42420;SDS011;28063;48.140;11.588;2023-06-24T05:54:05;1.77;;;1.67;;
42420;SDS011;28063;48.140;11.588;2023-06-24T05:56:33;1.83;;;1.73;;
42420;SDS011;28063;48.140;11.588;2023-06-24T05:58:59;1.60;;;1.50;;
42420;SDS011;28063;48.140;11.588;2023-06-24T06:01:25;1.70;;;1.60;;
42420;SDS011;28063;48.140;11.588;2023-06-24T06:03:51;1.63;;;1.52;;
42420;SDS011;28063;48.140;11.588;2023-06-24T06:06:16;1.60;;;1.50;;
42420;SDS011;28063;48.140;11.588;2023-06-24T06:08:42;1.98;;;1.88;;
42420;SDS011;28063;48.140;11.588;2023-06-24T06:11:08;2.42;;;2.20;;
42420;SDS011;28063;48.140;11.588;2023-06-24T06:13:33;2.92;;;1.80;;
42420;SDS011;28063;48.140;11.588;2023-06-24T06:15:59;2.10;;;2.00;;
42420;SDS011;28063;48.140;11.588;2023-06-24T06:18:25;1.90;;;1.80;;
42420;SDS011;28063;48.140;11.588;2023-06-24T06:20:50;2.45;;;2.25;;
42420;SDS011;28063;48.140;11.588;2023-06-24T06:23:16;2.60;;;2.28;;
42420;SDS011;28063;48.140;11.588;2023-06-24T06:25:42;1.90;;;1.80;;
42420;SDS011;28063;48.140;11.588;2023-06-24T06:28:08;1.77;;;1.67;;
42420;SDS011;28063;48.140;11.588;2023-06-24T06:30:34;1.80;;;1.70;;
42420;SDS011;28063;48.140;11.588;2023-06-24T06:32:59;1.67;;;1.58;;
42420;SDS011;28063;48.140;11.588;2023-06-24T06:35:25;1.90;;;1.80;;
42420;SDS011;28063;48.140;11.588;2023-06-24T06:37:51;2.00;;;1.90;;
42420;SDS011;28063;48.140;11.588;2023-06-24T06:40:21;1.75;;;1.65;;
42420;SDS011;28063;48.140;11.588;2023-06-24T06:42:47;2.47;;;2.28;;
42420;SDS011;28063;48.140;11.588;2023-06-24T06:45:13;2.35;;;2.15;;
42420;SDS011;28063;48.140;11.588;2023-06-24T06:47:38;2.08;;;1.88;;
42420;SDS011;28063;48.140;11.588;2023-06-24T06:50:04;1.98;;;1.88;;
42420;SDS011;28063;48.140;11.588;2023-06-24T06:52:31;2.08;;;1.85;;
42420;SDS011;28063;48.140;11.588;2023-06-24T06:54:57;1.88;;;1.77;;
42420;SDS011;28063;48.140;11.588;2023-06-24T06:57:23;1.83;;;1.73;;
42420;SDS011;28063;48.140;11.588;2023-06-24T06:59:48;2.05;;;1.85;;
42420;SDS011;28063;48.140;11.588;2023-06-24T07:02:16;1.58;;;1.48;;
42420;SDS011;28063;48.140;11.588;2023-06-24T07:04:44;1.70;;;1.60;;
42420;SDS011;28063;48.140;11.588;2023-06-24T07:07:10;1.23;;;1.23;;
42420;SDS011;28063;48.140;11.588;2023-06-24T07:09:37;1.55;;;1.45;;
42420;SDS011;28063;48.140;11.588;2023-06-24T07:12:02;1.60;;;1.50;;
42420;SDS011;28063;48.140;11.588;2023-06-24T07:14:28;1.42;;;1.33;;
42420;SDS011;28063;48.140;11.588;2023-06-24T07:16:54;1.60;;;1.50;;
42420;SDS011;28063;48.140;11.588;2023-06-24T07:19:20;1.77;;;1.67;;
42420;SDS011;28063;48.140;11.588;2023-06-24T07:21:45;1.55;;;1.45;;
42420;SDS011;28063;48.140;11.588;2023-06-24T07:24:11;1.60;;;1.50;;
42420;SDS011;28063;48.140;11.588;2023-06-24T07:26:36;1.55;;;1.45;;
42420;SDS011;28063;48.140;11.588;2023-06-24T07:29:05;1.45;;;1.42;;
42420;SDS011;28063;48.140;11.588;2023-06-24T07:31:31;1.63;;;1.52;;
42420;SDS011;28063;48.140;11.588;2023-06-24T07:33:57;1.65;;;1.55;;
42420;SDS011;28063;48.140;11.588;2023-06-24T07:36:22;1.60;;;1.50;;
42420;SDS011;28063;48.140;11.588;2023-06-24T07:38:48;1.50;;;1.40;;
42420;SDS011;28063;48.140;11.588;2023-06-24T07:41:13;2.10;;;2.00;;
42420;SDS011;28063;48.140;11.588;2023-06-24T07:43:39;1.70;;;1.60;;
42420;SDS011;28063;48.140;11.588;2023-06-24T07:46:05;2.15;;;1.95;;
42420;SDS011;28063;48.140;11.588;2023-06-24T07:48:30;1.90;;;1.80;;
42420;SDS011;28063;48.140;11.588;2023-06-24T07:50:57;1.67;;;1.58;;
42420;SDS011;28063;48.140;11.588;2023-06-24T07:53:23;1.63;;;1.52;;
42420;SDS011;28063;48.140;11.588;2023-06-24T07:55:49;1.55;;;1.45;;
42420;SDS011;28063;48.140;11.588;2023-06-24T07:58:15;1.38;;;1.38;;
42420;SDS011;28063;48.140;11.588;2023-06-24T08:00:40;1.50;;;1.40;;
42420;SDS011;28063;48.140;11.588;2023-06-24T08:03:06;1.55;;;1.45;;
42420;SDS011;28063;48.140;11.588;2023-06-24T08:05:32;2.20;;;1.45;;
42420;SDS011;28063;48.140;11.588;2023-06-24T08:07:57;1.70;;;1.60;;
42420;SDS011;28063;48.140;11.588;2023-06-24T08:10:23;1.85;;;1.75;;
42420;SDS011;28063;48.140;11.588;2023-06-24T08:12:49;1.70;;;1.60;;
42420;SDS011;28063;48.140;11.588;2023-06-24T08:15:14;1.85;;;1.75;;
42420;SDS011;28063;48.140;11.588;2023-06-24T08:17:40;1.52;;;1.45;;
42420;SDS011;28063;48.140;11.588;2023-06-24T08:20:06;1.75;;;1.65;;
42420;SDS011;28063;48.140;11.588;2023-06-24T08:22:32;2.22;;;2.05;;
42420;SDS011;28063;48.140;11.588;2023-06-24T08:24:58;1.50;;;1.40;;
42420;SDS011;28063;48.140;11.588;2023-06-24T08:27:23;2.05;;;1.95;;
42420;SDS011;28063;48.140;11.588;2023-06-24T08:29:49;1.80;;;1.70;;
42420;SDS011;28063;48.140;11.588;2023-06-24T08:32:15;1.67;;;1.58;;
42420;SDS011;28063;48.140;11.588;2023-06-24T08:34:40;1.92;;;1.83;;
42420;SDS011;28063;48.140;11.588;2023-06-24T08:37:06;1.80;;;1.70;;
42420;SDS011;28063;48.140;11.588;2023-06-24T08:39:32;2.00;;;1.90;;
42420;SDS011;28063;48.140;11.588;2023-06-24T08:41:58;2.60;;;2.03;;
42420;SDS011;28063;48.140;11.588;2023-06-24T08:44:24;2.10;;;2.00;;
42420;SDS011;28063;48.140;11.588;2023-06-24T08:46:50;2.20;;;2.05;;
42420;SDS011;28063;48.140;11.588;2023-06-24T08:49:36;1.70;;;1.60;;
42420;SDS011;28063;48.140;11.588;2023-06-24T08:52:12;2.83;;;2.63;;
42420;SDS011;28063;48.140;11.588;2023-06-24T08:57:10;2.97;;;2.30;;
42420;SDS011;28063;48.140;11.588;2023-06-24T08:59:39;5.22;;;3.22;;
42420;SDS011;28063;48.140;11.588;2023-06-24T09:02:06;2.50;;;2.30;;
42420;SDS011;28063;48.140;11.588;2023-06-24T09:04:32;2.53;;;2.33;;
42420;SDS011;28063;48.140;11.588;2023-06-24T09:06:57;1.90;;;1.80;;
42420;SDS011;28063;48.140;11.588;2023-06-24T09:09:23;2.85;;;2.55;;
42420;SDS011;28063;48.140;11.588;2023-06-24T09:11:57;2.85;;;2.33;;
42420;SDS011;28063;48.140;11.588;2023-06-24T09:14:24;2.38;;;2.17;;
42420;SDS011;28063;48.140;11.588;2023-06-24T09:16:51;2.10;;;1.98;;
42420;SDS011;28063;48.140;11.588;2023-06-24T09:19:26;3.03;;;2.72;;
42420;SDS011;28063;48.140;11.588;2023-06-24T09:22:00;3.10;;;2.80;;
42420;SDS011;28063;48.140;11.588;2023-06-24T09:24:31;2.63;;;2.42;;
42420;SDS011;28063;48.140;11.588;2023-06-24T09:27:02;2.67;;;2.45;;
42420;SDS011;28063;48.140;11.588;2023-06-24T09:29:31;2.10;;;2.00;;
42420;SDS011;28063;48.140;11.588;2023-06-24T09:31:58;2.72;;;2.53;;
42420;SDS011;28063;48.140;11.588;2023-06-24T09:34:27;2.80;;;2.58;;
42420;SDS011;28063;48.140;11.588;2023-06-24T09:36:54;2.80;;;2.60;;
42420;SDS011;28063;48.140;11.588;2023-06-24T09:39:24;2.67;;;2.47;;
42420;SDS011;28063;48.140;11.588;2023-06-24T09:41:54;2.20;;;2.10;;
42420;SDS011;28063;48.140;11.588;2023-06-24T09:44:23;2.40;;;2.20;;
42420;SDS011;28063;48.140;11.588;2023-06-24T09:46:50;2.38;;;2.15;;
42420;SDS011;28063;48.140;11.588;2023-06-24T09:49:16;2.33;;;2.17;;
42420;SDS011;28063;48.140;11.588;2023-06-24T09:51:46;2.47;;;2.28;;
42420;SDS011;28063;48.140;11.588;2023-06-24T09:54:13;2.13;;;1.92;;
42420;SDS011;28063;48.140;11.588;2023-06-24T09:56:43;1.92;;;1.83;;
42420;SDS011;28063;48.140;11.588;2023-06-24T09:59:14;2.30;;;2.15;;
42420;SDS011;28063;48.140;11.588;2023-06-24T10:01:43;4.78;;;3.60;;
42420;SDS011;28063;48.140;11.588;2023-06-24T10:04:15;3.67;;;2.83;;
42420;SDS011;28063;48.140;11.588;2023-06-24T10:06:43;2.75;;;2.55;;
42420;SDS011;28063;48.140;11.588;2023-06-24T10:09:09;2.55;;;2.35;;
42420;SDS011;28063;48.140;11.588;2023-06-24T10:11:35;2.78;;;2.58;;
42420;SDS011;28063;48.140;11.588;2023-06-24T10:14:01;3.00;;;2.80;;
42420;SDS011;28063;48.140;11.588;2023-06-24T10:16:27;3.25;;;2.80;;
42420;SDS011;28063;48.140;11.588;2023-06-24T10:18:56;2.88;;;2.67;;
42420;SDS011;28063;48.140;11.588;2023-06-24T10:21:43;2.85;;;2.65;;
42420;SDS011;28063;48.140;11.588;2023-06-24T10:24:10;3.30;;;3.00;;
42420;SDS011;28063;48.140;11.588;2023-06-24T10:26:36;4.40;;;2.65;;
42420;SDS011;28063;48.140;11.588;2023-06-24T10:44:53;3.60;;;2.70;;
42420;SDS011;28063;48.140;11.588;2023-06-24T10:47:23;2.60;;;2.40;;
42420;SDS011;28063;48.140;11.588;2023-06-24T10:49:50;2.00;;;1.80;;
42420;SDS011;28063;48.140;11.588;2023-06-24T10:52:17;2.03;;;1.88;;
42420;SDS011;28063;48.140;11.588;2023-06-24T10:54:46;2.38;;;2.17;;
42420;SDS011;28063;48.140;11.588;2023-06-24T10:57:12;2.95;;;2.35;;
42420;SDS011;28063;48.140;11.588;2023-06-24T10:59:41;2.38;;;2.28;;
42420;SDS011;28063;48.140;11.588;2023-06-24T11:02:13;2.08;;;1.88;;
42420;SDS011;28063;48.140;11.588;2023-06-24T11:07:12;3.42;;;2.35;;
42420;SDS011;28063;48.140;11.588;2023-06-24T11:09:40;3.00;;;2.70;;
42420;SDS011;28063;48.140;11.588;2023-06-24T11:12:10;2.92;;;2.72;;
42420;SDS011;28063;48.140;11.588;2023-06-24T11:14:37;2.67;;;2.47;;
42420;SDS011;28063;48.140;11.588;2023-06-24T11:17:03;2.60;;;2.40;;
42420;SDS011;28063;48.140;11.588;2023-06-24T11:19:30;2.63;;;2.42;;
42420;SDS011;28063;48.140;11.588;2023-06-24T11:22:02;2.45;;;2.25;;
42420;SDS011;28063;48.140;11.588;2023-06-24T11:24:28;2.45;;;2.25;;
42420;SDS011;28063;48.140;11.588;2023-06-24T11:26:54;2.35;;;2.25;;
42420;SDS011;28063;48.140;11.588;2023-06-24T11:29:20;2.67;;;2.40;;
42420;SDS011;28063;48.140;11.588;2023-06-24T11:31:46;2.20;;;2.10;;
42420;SDS011;28063;48.140;11.588;2023-06-24T11:34:12;2.50;;;2.30;;
42420;SDS011;28063;48.140;11.588;2023-06-24T11:36:37;2.60;;;2.40;;
42420;SDS011;28063;48.140;11.588;2023-06-24T11:39:03;2.50;;;2.40;;
42420;SDS011;28063;48.140;11.588;2023-06-24T11:41:29;2.08;;;1.98;;
42420;SDS011;28063;48.140;11.588;2023-06-24T11:43:56;2.40;;;2.20;;
42420;SDS011;28063;48.140;11.588;2023-06-24T11:46:26;2.53;;;2.33;;
42420;SDS011;28063;48.140;11.588;2023-06-24T11:49:02;1.88;;;1.77;;
42420;SDS011;28063;48.140;11.588;2023-06-24T11:51:32;2.50;;;2.30;;
42420;SDS011;28063;48.140;11.588;2023-06-24T11:54:01;1.95;;;1.85;;
42420;SDS011;28063;48.140;11.588;2023-06-24T11:56:35;2.30;;;2.10;;
42420;SDS011;28063;48.140;11.588;2023-06-24T11:59:07;2.70;;;2.50;;
42420;SDS011;28063;48.140;11.588;2023-06-24T12:01:33;2.50;;;2.30;;
42420;SDS011;28063;48.140;11.588;2023-06-24T12:04:15;2.72;;;2.53;;
42420;SDS011;28063;48.140;11.588;2023-06-24T12:06:41;2.28;;;2.17;;
42420;SDS011;28063;48.140;11.588;2023-06-24T12:09:08;2.40;;;2.15;;
42420;SDS011;28063;48.140;11.588;2023-06-24T12:11:34;2.50;;;2.30;;
42420;SDS011;28063;48.140;11.588;2023-06-24T12:14:00;2.67;;;2.47;;
42420;SDS011;28063;48.140;11.588;2023-06-24T12:16:25;2.88;;;2.67;;
42420;SDS011;28063;48.140;11.588;2023-06-24T12:18:52;2.53;;;2.42;;
42420;SDS011;28063;48.140;11.588;2023-06-24T12:21:18;3.60;;;2.95;;
42420;SDS011;28063;48.140;11.588;2023-06-24T12:23:44;3.47;;;3.17;;
42420;SDS011;28063;48.140;11.588;2023-06-24T12:26:10;4.10;;;3.10;;
42420;SDS011;28063;48.140;11.588;2023-06-24T12:28:36;2.85;;;2.65;;
42420;SDS011;28063;48.140;11.588;2023-06-24T12:31:01;3.13;;;2.83;;
42420;SDS011;28063;48.140;11.588;2023-06-24T12:33:27;2.42;;;2.33;;
42420;SDS011;28063;48.140;11.588;2023-06-24T12:35:53;2.00;;;1.90;;
42420;SDS011;28063;48.140;11.588;2023-06-24T12:38:19;3.72;;;2.38;;
42420;SDS011;28063;48.140;11.588;2023-06-24T12:40:45;2.97;;;2.78;;
42420;SDS011;28063;48.140;11.588;2023-06-24T12:43:11;3.35;;;2.90;;
42420;SDS011;28063;48.140;11.588;2023-06-24T12:45:37;4.13;;;3.20;;
42420;SDS011;28063;48.140;11.588;2023-06-24T12:48:03;2.88;;;2.60;;
42420;SDS011;28063;48.140;11.588;2023-06-24T12:50:29;2.55;;;2.35;;
42420;SDS011;28063;48.140;11.588;2023-06-24T12:52:58;3.05;;;2.75;;
42420;SDS011;28063;48.140;11.588;2023-06-24T12:55:23;2.85;;;2.65;;
42420;SDS011;28063;48.140;11.588;2023-06-24T12:57:49;3.03;;;2.80;;
42420;SDS011;28063;48.140;11.588;2023-06-24T13:00:15;4.13;;;3.20;;
42420;SDS011;28063;48.140;11.588;2023-06-24T13:02:45;2.70;;;2.50;;
42420;SDS011;28063;48.140;11.588;2023-06-24T13:05:10;2.63;;;2.42;;
42420;SDS011;28063;48.140;11.588;2023-06-24T13:07:36;3.25;;;3.05;;
42420;SDS011;28063;48.140;11.588;2023-06-24T13:10:02;3.08;;;2.80;;
42420;SDS011;28063;48.140;11.588;2023-06-24T13:12:30;2.83;;;2.63;;
42420;SDS011;28063;48.140;11.588;2023-06-24T13:14:56;2.75;;;2.53;;
42420;SDS011;28063;48.140;11.588;2023-06-24T13:17:22;2.58;;;2.38;;
42420;SDS011;28063;48.140;11.588;2023-06-24T13:19:48;2.72;;;2.53;;
42420;SDS011;28063;48.140;11.588;2023-06-24T13:22:13;2.78;;;2.58;;
42420;SDS011;28063;48.140;11.588;2023-06-24T13:24:39;2.63;;;2.42;;
42420;SDS011;28063;48.140;11.588;2023-06-24T13:27:05;3.60;;;2.25;;
42420;SDS011;28063;48.140;11.588;2023-06-24T13:29:31;2.88;;;2.67;;
42420;SDS011;28063;48.140;11.588;2023-06-24T13:31:56;2.65;;;2.45;;
42420;SDS011;28063;48.140;11.588;2023-06-24T13:34:22;2.53;;;2.33;;
42420;SDS011;28063;48.140;11.588;2023-06-24T13:36:48;2.30;;;2.20;;
42420;SDS011;28063;48.140;11.588;2023-06-24T13:39:13;2.50;;;2.33;;
42420;SDS011;28063;48.140;11.588;2023-06-24T13:41:41;2.17;;;2.08;;
42420;SDS011;28063;48.140;11.588;2023-06-24T13:44:09;2.30;;;2.20;;
42420;SDS011;28063;48.140;11.588;2023-06-24T13:46:34;2.85;;;2.65;;
42420;SDS011;28063;48.140;11.588;2023-06-24T13:49:01;3.58;;;3.05;;
42420;SDS011;28063;48.140;11.588;2023-06-24T13:51:27;3.08;;;2.88;;
42420;SDS011;28063;48.140;11.588;2023-06-24T13:53:53;2.53;;;2.30;;
42420;SDS011;28063;48.140;11.588;2023-06-24T13:56:20;2.85;;;2.55;;
42420;SDS011;28063;48.140;11.588;2023-06-24T13:58:46;2.83;;;2.63;;
42420;SDS011;28063;48.140;11.588;2023-06-24T14:01:13;2.25;;;2.15;;
42420;SDS011;28063;48.140;11.588;2023-06-24T14:03:40;2.67;;;2.50;;
42420;SDS011;28063;48.140;11.588;2023-06-24T14:06:06;3.35;;;3.00;;
42420;SDS011;28063;48.140;11.588;2023-06-24T14:08:32;3.63;;;3.20;;
42420;SDS011;28063;48.140;11.588;2023-06-24T14:10:58;3.22;;;2.88;;
42420;SDS011;28063;48.140;11.588;2023-06-24T14:13:25;2.85;;;2.65;;
42420;SDS011;28063;48.140;11.588;2023-06-24T14:15:52;2.85;;;2.50;;
42420;SDS011;28063;48.140;11.588;2023-06-24T14:18:18;2.72;;;2.53;;
42420;SDS011;28063;48.140;11.588;2023-06-24T14:20:44;3.08;;;2.75;;
42420;SDS011;28063;48.140;11.588;2023-06-24T14:23:09;2.95;;;2.75;;
42420;SDS011;28063;48.140;11.588;2023-06-24T14:25:35;3.15;;;2.95;;
42420;SDS011;28063;48.140;11.588;2023-06-24T14:28:02;2.95;;;2.75;;
42420;SDS011;28063;48.140;11.588;2023-06-24T14:30:28;2.70;;;2.50;;
42420;SDS011;28063;48.140;11.588;2023-06-24T14:32:54;2.85;;;2.65;;
42420;SDS011;28063;48.140;11.588;2023-06-24T14:35:20;3.10;;;2.90;;
42420;SDS011;28063;48.140;11.588;2023-06-24T14:37:45;2.50;;;2.30;;
42420;SDS011;28063;48.140;11.588;2023-06-24T14:40:11;2.95;;;2.60;;
42420;SDS011;28063;48.140;11.588;2023-06-24T14:42:37;3.40;;;2.30;;
42420;SDS011;28063;48.140;11.588;2023-06-24T14:45:02;2.05;;;1.83;;
42420;SDS011;28063;48.140;11.588;2023-06-24T14:47:28;3.13;;;2.83;;
42420;SDS011;28063;48.140;11.588;2023-06-24T14:49:54;2.60;;;2.40;;
42420;SDS011;28063;48.140;11.588;2023-06-24T14:52:19;2.53;;;2.33;;
42420;SDS011;28063;48.140;11.588;2023-06-24T14:54:48;2.92;;;2.72;;
42420;SDS011;28063;48.140;11.588;2023-06-24T14:57:14;3.15;;;2.92;;
42420;SDS011;28063;48.140;11.588;2023-06-24T14:59:42;2.75;;;2.55;;
42420;SDS011;28063;48.140;11.588;2023-06-24T15:02:08;2.90;;;2.60;;
42420;SDS011;28063;48.140;11.588;2023-06-24T15:04:35;3.08;;;2.78;;
42420;SDS011;28063;48.140;11.588;2023-06-24T15:07:01;2.90;;;2.70;;